sensor_id;sensor_type;location;lat;lon;timestamp;pressure;altitude;pressure_sealevel;temperature;humidity
5350;BME280;2697;42.144;24.794;2023-08-07T00:00:41;158553.13;;;23.11;67.01
5350;BME280;2697;42.144;24.794;2023-08-07T00:03:06;158527.91;;;23.01;67.29
5350;BME280;2697;42.144;24.794;2023-08-07T00:05:31;158506.63;;;22.93;67.55
5350;BME280;2697;42.144;24.794;2023-08-07T00:07:57;158506.63;;;22.93;68.30
5350;BME280;2697;42.144;24.794;2023-08-07T00:10:22;158527.91;;;23.01;68.00
5350;BME280;2697;42.144;24.794;2023-08-07T00:12:48;158495.97;;;22.89;68.16
5350;BME280;2697;42.144;24.794;2023-08-07T00:15:13;158495.97;;;22.89;68.24
5350;BME280;2697;42.144;24.794;2023-08-07T00:17:38;158492.00;;;22.88;68.60
5350;BME280;2697;42.144;24.794;2023-08-07T00:20:04;158488.00;;;22.86;68.61
5350;BME280;2697;42.144;24.794;2023-08-07T00:22:30;158490.66;;;22.87;68.76
5350;BME280;2697;42.144;24.794;2023-08-07T00:24:55;158462.72;;;22.76;69.21
5350;BME280;2697;42.144;24.794;2023-08-07T00:27:21;158462.72;;;22.76;69.55
5350;BME280;2697;42.144;24.794;2023-08-07T00:29:46;158450.78;;;22.72;69.81
5350;BME280;2697;42.144;24.794;2023-08-07T00:32:12;158464.03;;;22.77;69.45
5350;BME280;2697;42.144;24.794;2023-08-07T00:34:37;158448.13;;;22.71;69.76
5350;BME280;2697;42.144;24.794;2023-08-07T00:37:03;158464.03;;;22.77;69.55
5350;BME280;2697;42.144;24.794;2023-08-07T00:39:28;158421.53;;;22.61;70.62
5350;BME280;2697;42.144;24.794;2023-08-07T00:41:54;158460.06;;;22.75;70.67
5350;BME280;2697;42.144;24.794;2023-08-07T00:44:19;158476.03;;;22.82;69.79
5350;BME280;2697;42.144;24.794;2023-08-07T00:46:44;158474.69;;;22.81;70.20
5350;BME280;2697;42.144;24.794;2023-08-07T00:49:11;158450.78;;;22.72;70.07
5350;BME280;2697;42.144;24.794;2023-08-07T00:51:38;158402.97;;;22.54;71.36
5350;BME280;2697;42.144;24.794;2023-08-07T00:54:05;158380.38;;;22.45;71.86
5350;BME280;2697;42.144;24.794;2023-08-07T00:56:31;158351.16;;;22.34;72.96
5350;BME280;2697;42.144;24.794;2023-08-07T00:59:00;158344.47;;;22.31;73.24
5350;BME280;2697;42.144;24.794;2023-08-07T01:01:26;158359.13;;;22.37;73.43
5350;BME280;2697;42.144;24.794;2023-08-07T01:03:52;158335.19;;;22.28;73.98
5350;BME280;2697;42.144;24.794;2023-08-07T01:06:17;158351.16;;;22.34;74.00
5350;BME280;2697;42.144;24.794;2023-08-07T01:08:43;158353.81;;;22.35;73.63
5350;BME280;2697;42.144;24.794;2023-08-07T01:17:00;158315.28;;;22.20;75.27
5350;BME280;2697;42.144;24.794;2023-08-07T01:19:28;158280.75;;;22.07;75.99
5350;BME280;2697;42.144;24.794;2023-08-07T01:22:13;158271.38;;;22.03;76.13
5350;BME280;2697;42.144;24.794;2023-08-07T01:24:41;158214.31;;;21.81;77.49
5350;BME280;2697;42.144;24.794;2023-08-07T01:29:53;158171.81;;;21.65;78.61
5350;BME280;2697;42.144;24.794;2023-08-07T01:32:26;158145.25;;;21.55;80.03
5350;BME280;2697;42.144;24.794;2023-08-07T01:34:54;158143.94;;;21.54;79.98
5350;BME280;2697;42.144;24.794;2023-08-07T01:37:22;158132.00;;;21.50;80.53
5350;BME280;2697;42.144;24.794;2023-08-07T01:39:49;158145.25;;;21.55;81.08
5350;BME280;2697;42.144;24.794;2023-08-07T01:42:15;158136.00;;;21.51;80.78
5350;BME280;2697;42.144;24.794;2023-08-07T01:44:41;158198.34;;;21.75;79.64
5350;BME280;2697;42.144;24.794;2023-08-07T01:47:06;158147.91;;;21.56;80.38
5350;BME280;2697;42.144;24.794;2023-08-07T01:49:32;158149.22;;;21.56;81.15
5350;BME280;2697;42.144;24.794;2023-08-07T01:51:57;158169.16;;;21.64;80.70
5350;BME280;2697;42.144;24.794;2023-08-07T01:54:22;158116.06;;;21.44;81.82
5350;BME280;2697;42.144;24.794;2023-08-07T01:56:48;158076.22;;;21.28;83.32
5350;BME280;2697;42.144;24.794;2023-08-07T01:59:13;158089.53;;;21.33;83.53
5350;BME280;2697;42.144;24.794;2023-08-07T02:01:38;158109.44;;;21.41;83.71
5350;BME280;2697;42.144;24.794;2023-08-07T02:04:04;158093.50;;;21.35;84.72
5350;BME280;2697;42.144;24.794;2023-08-07T02:06:29;158029.72;;;21.11;86.42
5350;BME280;2697;42.144;24.794;2023-08-07T02:08:54;158032.38;;;21.12;86.38
5350;BME280;2697;42.144;24.794;2023-08-07T02:11:20;158001.84;;;21.00;87.55
5350;BME280;2697;42.144;24.794;2023-08-07T02:13:45;158009.81;;;21.03;87.45
5350;BME280;2697;42.144;24.794;2023-08-07T02:16:11;158048.31;;;21.18;86.79
5350;BME280;2697;42.144;24.794;2023-08-07T02:18:36;158016.47;;;21.05;87.21
5350;BME280;2697;42.144;24.794;2023-08-07T02:21:03;158015.16;;;21.05;87.17
5350;BME280;2697;42.144;24.794;2023-08-07T02:23:28;157997.88;;;20.98;88.02
5350;BME280;2697;42.144;24.794;2023-08-07T02:25:54;158003.19;;;21.00;87.93
5350;BME280;2697;42.144;24.794;2023-08-07T02:28:19;158008.47;;;21.02;88.48
5350;BME280;2697;42.144;24.794;2023-08-07T02:30:45;158020.44;;;21.07;88.31
5350;BME280;2697;42.144;24.794;2023-08-07T02:33:14;157997.88;;;20.98;89.09
5350;BME280;2697;42.144;24.794;2023-08-07T02:35:39;157996.56;;;20.98;89.33
5350;BME280;2697;42.144;24.794;2023-08-07T02:38:05;158005.84;;;21.01;89.35
5350;BME280;2697;42.144;24.794;2023-08-07T02:40:30;157976.66;;;20.90;89.74
5350;BME280;2697;42.144;24.794;2023-08-07T02:42:55;158004.50;;;21.01;89.53
5350;BME280;2697;42.144;24.794;2023-08-07T02:45:21;158025.75;;;21.09;88.89
5350;BME280;2697;42.144;24.794;2023-08-07T02:47:46;157989.94;;;20.95;89.82
5350;BME280;2697;42.144;24.794;2023-08-07T02:50:11;157988.63;;;20.95;89.61
5350;BME280;2697;42.144;24.794;2023-08-07T02:52:37;157983.28;;;20.93;90.47
5350;BME280;2697;42.144;24.794;2023-08-07T02:55:02;157948.78;;;20.80;91.37
5350;BME280;2697;42.144;24.794;2023-08-07T02:57:28;157932.84;;;20.73;92.24
5350;BME280;2697;42.144;24.794;2023-08-07T02:59:54;157919.59;;;20.68;92.95
5350;BME280;2697;42.144;24.794;2023-08-07T03:02:19;157916.97;;;20.67;93.68
5350;BME280;2697;42.144;24.794;2023-08-07T03:04:44;157871.84;;;20.50;95.28
5350;BME280;2697;42.144;24.794;2023-08-07T03:07:10;157858.56;;;20.45;96.18
5350;BME280;2697;42.144;24.794;2023-08-07T03:09:35;157845.28;;;20.40;96.81
5350;BME280;2697;42.144;24.794;2023-08-07T03:12:00;157839.94;;;20.38;97.30
5350;BME280;2697;42.144;24.794;2023-08-07T03:14:28;157853.25;;;20.43;97.70
5350;BME280;2697;42.144;24.794;2023-08-07T03:16:54;157855.91;;;20.44;96.98
5350;BME280;2697;42.144;24.794;2023-08-07T03:19:19;157842.63;;;20.39;98.47
5350;BME280;2697;42.144;24.794;2023-08-07T03:21:46;157834.63;;;20.36;98.52
5350;BME280;2697;42.144;24.794;2023-08-07T03:24:12;157855.91;;;20.44;97.85
5350;BME280;2697;42.144;24.794;2023-08-07T03:26:37;157863.84;;;20.47;97.46
5350;BME280;2697;42.144;24.794;2023-08-07T03:29:02;157887.72;;;20.56;95.99
5350;BME280;2697;42.144;24.794;2023-08-07T03:31:28;157866.56;;;20.48;96.85
5350;BME280;2697;42.144;24.794;2023-08-07T03:33:53;157875.81;;;20.52;96.11
5350;BME280;2697;42.144;24.794;2023-08-07T03:36:19;157946.13;;;20.78;94.98
5350;BME280;2697;42.144;24.794;2023-08-07T03:38:44;158043.00;;;21.16;92.04
5350;BME280;2697;42.144;24.794;2023-08-07T03:41:09;158145.25;;;21.55;88.63
5350;BME280;2697;42.144;24.794;2023-08-07T03:43:35;158240.84;;;21.91;85.59
5350;BME280;2697;42.144;24.794;2023-08-07T03:46:00;158260.78;;;21.99;84.65
5350;BME280;2697;42.144;24.794;2023-08-07T03:48:26;158325.88;;;22.24;82.70
5350;BME280;2697;42.144;24.794;2023-08-07T03:50:51;158397.59;;;22.52;81.14
5350;BME280;2697;42.144;24.794;2023-08-07T03:53:17;158484.03;;;22.85;79.23
5350;BME280;2697;42.144;24.794;2023-08-07T03:55:42;158559.78;;;23.14;77.36
5350;BME280;2697;42.144;24.794;2023-08-07T03:58:08;158535.84;;;23.04;77.43
5350;BME280;2697;42.144;24.794;2023-08-07T04:00:33;158654.16;;;23.50;75.51
5350;BME280;2697;42.144;24.794;2023-08-07T04:02:59;158663.44;;;23.53;74.90
5350;BME280;2697;42.144;24.794;2023-08-07T04:05:24;158759.22;;;23.90;72.94
5350;BME280;2697;42.144;24.794;2023-08-07T04:07:49;158761.88;;;23.91;72.25
5350;BME280;2697;42.144;24.794;2023-08-07T04:10:15;158852.31;;;24.26;71.31
5350;BME280;2697;42.144;24.794;2023-08-07T04:12:40;158772.53;;;23.95;71.42
5350;BME280;2697;42.144;24.794;2023-08-07T04:15:06;158849.66;;;24.25;70.03
5350;BME280;2697;42.144;24.794;2023-08-07T04:17:32;158910.91;;;24.48;69.23
5350;BME280;2697;42.144;24.794;2023-08-07T04:19:57;158942.81;;;24.60;68.42
5350;BME280;2697;42.144;24.794;2023-08-07T04:22:22;158928.16;;;24.55;67.89
5350;BME280;2697;42.144;24.794;2023-08-07T04:24:48;158998.69;;;24.82;67.06
5350;BME280;2697;42.144;24.794;2023-08-07T04:27:13;158966.75;;;24.69;67.01
5350;BME280;2697;42.144;24.794;2023-08-07T04:29:38;159046.56;;;25.00;66.20
5350;BME280;2697;42.144;24.794;2023-08-07T04:32:04;159118.50;;;25.27;64.12
5350;BME280;2697;42.144;24.794;2023-08-07T04:34:30;159227.66;;;25.69;62.83
5350;BME280;2697;42.144;24.794;2023-08-07T04:36:55;159062.63;;;25.06;64.59
5350;BME280;2697;42.144;24.794;2023-08-07T04:39:21;159139.78;;;25.36;63.87
5350;BME280;2697;42.144;24.794;2023-08-07T04:41:47;159243.66;;;25.75;61.84
5350;BME280;2697;42.144;24.794;2023-08-07T04:44:15;159199.66;;;25.58;62.65
5350;BME280;2697;42.144;24.794;2023-08-07T04:46:40;159163.75;;;25.45;62.78
5350;BME280;2697;42.144;24.794;2023-08-07T04:49:06;159278.28;;;25.89;61.16
5350;BME280;2697;42.144;24.794;2023-08-07T04:51:32;159231.69;;;25.71;61.17
5350;BME280;2697;42.144;24.794;2023-08-07T04:53:57;159264.97;;;25.83;60.90
5350;BME280;2697;42.144;24.794;2023-08-07T04:56:23;159328.88;;;26.08;59.83
5350;BME280;2697;42.144;24.794;2023-08-07T04:58:48;159268.94;;;25.85;60.28
5350;BME280;2697;42.144;24.794;2023-08-07T05:01:14;159442.09;;;26.51;59.06
5350;BME280;2697;42.144;24.794;2023-08-07T05:03:39;159507.38;;;26.76;58.09
5350;BME280;2697;42.144;24.794;2023-08-07T05:06:04;159560.66;;;26.96;56.04
5350;BME280;2697;42.144;24.794;2023-08-07T05:08:30;159611.34;;;27.16;56.17
5350;BME280;2697;42.144;24.794;2023-08-07T05:10:56;159558.00;;;26.95;56.21
5350;BME280;2697;42.144;24.794;2023-08-07T05:13:22;159542.00;;;26.89;56.16
5350;BME280;2697;42.144;24.794;2023-08-07T05:15:47;159626.03;;;27.21;55.25
5350;BME280;2697;42.144;24.794;2023-08-07T05:18:13;159496.75;;;26.72;56.38
5350;BME280;2697;42.144;24.794;2023-08-07T05:20:39;159586.03;;;27.06;55.91
5350;BME280;2697;42.144;24.794;2023-08-07T05:23:05;159524.72;;;26.83;55.29
5350;BME280;2697;42.144;24.794;2023-08-07T05:25:30;159540.66;;;26.89;55.30
5350;BME280;2697;42.144;24.794;2023-08-07T05:27:55;159462.09;;;26.59;55.86
5350;BME280;2697;42.144;24.794;2023-08-07T05:30:21;159347.50;;;26.15;57.72
5350;BME280;2697;42.144;24.794;2023-08-07T05:32:46;159536.69;;;26.87;54.84
5350;BME280;2697;42.144;24.794;2023-08-07T05:35:12;159554.00;;;26.94;55.19
5350;BME280;2697;42.144;24.794;2023-08-07T05:37:37;159725.97;;;27.60;53.65
5350;BME280;2697;42.144;24.794;2023-08-07T05:40:03;159759.31;;;27.72;53.61
5350;BME280;2697;42.144;24.794;2023-08-07T05:42:29;159891.31;;;28.23;51.34
5350;BME280;2697;42.144;24.794;2023-08-07T05:44:55;159900.63;;;28.26;51.07
5350;BME280;2697;42.144;24.794;2023-08-07T05:47:20;159668.66;;;27.38;53.39
5350;BME280;2697;42.144;24.794;2023-08-07T05:49:45;159591.34;;;27.08;53.58
5350;BME280;2697;42.144;24.794;2023-08-07T05:52:11;159634.00;;;27.24;53.74
5350;BME280;2697;42.144;24.794;2023-08-07T05:54:36;159920.69;;;28.34;51.10
5350;BME280;2697;42.144;24.794;2023-08-07T05:57:02;159994.03;;;28.62;50.41
5350;BME280;2697;42.144;24.794;2023-08-07T05:59:27;159848.66;;;28.06;50.85
5350;BME280;2697;42.144;24.794;2023-08-07T06:01:54;159899.31;;;28.26;49.97
5350;BME280;2697;42.144;24.794;2023-08-07T06:04:20;159766.03;;;27.75;51.01
5350;BME280;2697;42.144;24.794;2023-08-07T06:06:46;159742.03;;;27.66;51.43
5350;BME280;2697;42.144;24.794;2023-08-07T06:09:12;159880.63;;;28.19;50.03
5350;BME280;2697;42.144;24.794;2023-08-07T06:11:37;159803.31;;;27.89;50.78
5350;BME280;2697;42.144;24.794;2023-08-07T06:14:03;159809.97;;;27.92;50.22
5350;BME280;2697;42.144;24.794;2023-08-07T06:16:28;159643.34;;;27.28;51.79
5350;BME280;2697;42.144;24.794;2023-08-07T06:18:53;159647.34;;;27.30;52.39
5350;BME280;2697;42.144;24.794;2023-08-07T06:21:19;159731.28;;;27.62;51.52
5350;BME280;2697;42.144;24.794;2023-08-07T06:23:45;159824.66;;;27.97;50.35
5350;BME280;2697;42.144;24.794;2023-08-07T06:26:12;159896.66;;;28.25;49.86
5350;BME280;2697;42.144;24.794;2023-08-07T06:28:37;159908.72;;;28.29;49.10
5350;BME280;2697;42.144;24.794;2023-08-07T06:31:04;159942.03;;;28.42;48.54
5350;BME280;2697;42.144;24.794;2023-08-07T06:33:30;159796.66;;;27.87;49.38
5350;BME280;2697;42.144;24.794;2023-08-07T06:35:57;159683.31;;;27.43;51.16
5350;BME280;2697;42.144;24.794;2023-08-07T06:38:23;159811.34;;;27.92;49.80
5350;BME280;2697;42.144;24.794;2023-08-07T06:40:48;160195.50;;;29.39;46.60
5350;BME280;2697;42.144;24.794;2023-08-07T06:43:13;160123.47;;;29.11;46.55
5350;BME280;2697;42.144;24.794;2023-08-07T06:45:39;160222.25;;;29.49;46.34
5350;BME280;2697;42.144;24.794;2023-08-07T06:48:05;160127.44;;;29.13;47.22
5350;BME280;2697;42.144;24.794;2023-08-07T06:50:31;160361.03;;;30.02;44.66
5350;BME280;2697;42.144;24.794;2023-08-07T06:52:56;160441.19;;;30.32;44.01
5350;BME280;2697;42.144;24.794;2023-08-07T06:55:22;160459.88;;;30.40;43.50
5350;BME280;2697;42.144;24.794;2023-08-07T06:57:47;160377.13;;;30.08;44.17
5350;BME280;2697;42.144;24.794;2023-08-07T07:00:13;160187.53;;;29.36;45.24
5350;BME280;2697;42.144;24.794;2023-08-07T07:02:39;160214.19;;;29.46;44.93
5350;BME280;2697;42.144;24.794;2023-08-07T07:05:04;160433.19;;;30.29;43.08
5350;BME280;2697;42.144;24.794;2023-08-07T07:07:30;160270.28;;;29.67;44.74
5350;BME280;2697;42.144;24.794;2023-08-07T07:09:55;160092.78;;;29.00;45.53
5350;BME280;2697;42.144;24.794;2023-08-07T07:12:23;160171.50;;;29.30;44.61
5350;BME280;2697;42.144;24.794;2023-08-07T07:14:49;160260.97;;;29.64;44.15
5350;BME280;2697;42.144;24.794;2023-08-07T07:17:14;160354.38;;;29.99;44.25
5350;BME280;2697;42.144;24.794;2023-08-07T07:19:39;160252.97;;;29.61;43.66
5350;BME280;2697;42.144;24.794;2023-08-07T07:22:05;160329.03;;;29.90;43.72
5350;BME280;2697;42.144;24.794;2023-08-07T07:24:30;160179.53;;;29.33;43.17
5350;BME280;2697;42.144;24.794;2023-08-07T07:26:56;160123.47;;;29.11;44.60
5350;BME280;2697;42.144;24.794;2023-08-07T07:29:21;160066.13;;;28.89;44.58
5350;BME280;2697;42.144;24.794;2023-08-07T07:31:46;160027.38;;;28.75;45.31
5350;BME280;2697;42.144;24.794;2023-08-07T07:34:12;160158.19;;;29.24;45.03
5350;BME280;2697;42.144;24.794;2023-08-07T07:36:37;160131.50;;;29.14;44.48
5350;BME280;2697;42.144;24.794;2023-08-07T07:39:03;160250.31;;;29.60;44.35
5350;BME280;2697;42.144;24.794;2023-08-07T07:41:28;160083.47;;;28.96;43.94
5350;BME280;2697;42.144;24.794;2023-08-07T07:43:53;160187.53;;;29.36;43.39
5350;BME280;2697;42.144;24.794;2023-08-07T07:46:21;160056.75;;;28.86;44.18
5350;BME280;2697;42.144;24.794;2023-08-07T07:48:47;160118.13;;;29.09;44.89
5350;BME280;2697;42.144;24.794;2023-08-07T07:51:12;160144.81;;;29.19;44.57
5350;BME280;2697;42.144;24.794;2023-08-07T07:53:38;160091.47;;;28.99;43.67
5350;BME280;2697;42.144;24.794;2023-08-07T07:56:03;159915.38;;;28.32;43.81
5350;BME280;2697;42.144;24.794;2023-08-07T07:58:28;159881.97;;;28.19;44.83
5350;BME280;2697;42.144;24.794;2023-08-07T08:00:54;159781.97;;;27.81;44.68
5350;BME280;2697;42.144;24.794;2023-08-07T08:03:20;159630.00;;;27.23;45.59
5350;BME280;2697;42.144;24.794;2023-08-07T08:05:49;159733.94;;;27.63;45.86
5350;BME280;2697;42.144;24.794;2023-08-07T08:08:15;159677.97;;;27.41;44.75
5350;BME280;2697;42.144;24.794;2023-08-07T08:10:41;159600.69;;;27.12;44.49
5350;BME280;2697;42.144;24.794;2023-08-07T08:13:09;159595.38;;;27.10;44.63
5350;BME280;2697;42.144;24.794;2023-08-07T08:15:34;159614.00;;;27.17;45.38
5350;BME280;2697;42.144;24.794;2023-08-07T08:17:59;159654.00;;;27.32;44.40
5350;BME280;2697;42.144;24.794;2023-08-07T08:20:25;159684.63;;;27.44;43.79
5350;BME280;2697;42.144;24.794;2023-08-07T08:22:50;159739.31;;;27.65;43.38
5350;BME280;2697;42.144;24.794;2023-08-07T08:25:16;159777.97;;;27.79;42.86
5350;BME280;2697;42.144;24.794;2023-08-07T08:27:43;159754.00;;;27.70;43.06
5350;BME280;2697;42.144;24.794;2023-08-07T08:30:09;159820.66;;;27.96;41.87
5350;BME280;2697;42.144;24.794;2023-08-07T08:32:34;159887.34;;;28.21;41.80
5350;BME280;2697;42.144;24.794;2023-08-07T08:35:00;159881.97;;;28.19;41.67
5350;BME280;2697;42.144;24.794;2023-08-07T08:37:25;159903.28;;;28.27;42.63
5350;BME280;2697;42.144;24.794;2023-08-07T08:39:51;159914.03;;;28.31;42.48
5350;BME280;2697;42.144;24.794;2023-08-07T08:42:16;159844.66;;;28.05;42.53
5350;BME280;2697;42.144;24.794;2023-08-07T08:44:50;159877.97;;;28.18;42.63
5350;BME280;2697;42.144;24.794;2023-08-07T08:47:16;159918.03;;;28.33;42.48
5350;BME280;2697;42.144;24.794;2023-08-07T08:50:02;159974.03;;;28.54;41.87
5350;BME280;2697;42.144;24.794;2023-08-07T08:52:28;160008.72;;;28.67;40.61
5350;BME280;2697;42.144;24.794;2023-08-07T08:54:56;159943.38;;;28.43;40.81
5350;BME280;2697;42.144;24.794;2023-08-07T08:57:22;159952.69;;;28.46;40.64
5350;BME280;2697;42.144;24.794;2023-08-07T08:59:48;159963.38;;;28.50;40.62
5350;BME280;2697;42.144;24.794;2023-08-07T09:02:13;160006.06;;;28.66;40.22
5350;BME280;2697;42.144;24.794;2023-08-07T09:04:39;159979.34;;;28.56;40.25
5350;BME280;2697;42.144;24.794;2023-08-07T09:07:04;159998.03;;;28.63;40.28
5350;BME280;2697;42.144;24.794;2023-08-07T09:09:30;159991.38;;;28.61;40.32
5350;BME280;2697;42.144;24.794;2023-08-07T09:11:57;160019.38;;;28.72;40.79
5350;BME280;2697;42.144;24.794;2023-08-07T09:14:26;160104.81;;;29.04;40.01
5350;BME280;2697;42.144;24.794;2023-08-07T09:16:53;160126.13;;;29.12;39.73
5350;BME280;2697;42.144;24.794;2023-08-07T09:19:19;160119.47;;;29.10;38.68
5350;BME280;2697;42.144;24.794;2023-08-07T09:21:44;160096.78;;;29.01;39.00
5350;BME280;2697;42.144;24.794;2023-08-07T09:24:09;160080.81;;;28.95;38.52
5350;BME280;2697;42.144;24.794;2023-08-07T09:26:37;160130.16;;;29.14;38.35
5350;BME280;2697;42.144;24.794;2023-08-07T09:29:03;160090.13;;;28.99;38.42
5350;BME280;2697;42.144;24.794;2023-08-07T09:31:29;160167.50;;;29.28;38.11
5350;BME280;2697;42.144;24.794;2023-08-07T09:34:01;160170.16;;;29.29;37.83
5350;BME280;2697;42.144;24.794;2023-08-07T09:36:30;160218.19;;;29.47;38.14
5350;BME280;2697;42.144;24.794;2023-08-07T09:38:55;160191.50;;;29.37;37.10
5350;BME280;2697;42.144;24.794;2023-08-07T09:41:21;160214.19;;;29.46;37.66
5350;BME280;2697;42.144;24.794;2023-08-07T09:43:46;160252.97;;;29.61;36.07
5350;BME280;2697;42.144;24.794;2023-08-07T09:46:12;160230.28;;;29.52;36.50
5350;BME280;2697;42.144;24.794;2023-08-07T09:48:43;160282.31;;;29.72;36.82
5350;BME280;2697;42.144;24.794;2023-08-07T09:51:10;160302.34;;;29.79;36.10
5350;BME280;2697;42.144;24.794;2023-08-07T09:53:35;160323.72;;;29.88;36.08
5350;BME280;2697;42.144;24.794;2023-08-07T09:56:02;160325.03;;;29.88;36.33
5350;BME280;2697;42.144;24.794;2023-08-07T09:58:28;160401.16;;;30.17;35.51
5350;BME280;2697;42.144;24.794;2023-08-07T10:00:54;160342.34;;;29.95;35.12
5350;BME280;2697;42.144;24.794;2023-08-07T10:03:22;160262.28;;;29.64;36.01
5350;BME280;2697;42.144;24.794;2023-08-07T10:05:48;160310.34;;;29.83;34.49
5350;BME280;2697;42.144;24.794;2023-08-07T10:08:13;160382.47;;;30.10;35.35
5350;BME280;2697;42.144;24.794;2023-08-07T10:10:39;160467.88;;;30.43;34.33
5350;BME280;2697;42.144;24.794;2023-08-07T10:13:05;160430.53;;;30.28;34.41
5350;BME280;2697;42.144;24.794;2023-08-07T10:15:31;160518.66;;;30.62;34.47
5350;BME280;2697;42.144;24.794;2023-08-07T10:17:57;160435.84;;;30.30;34.55
5350;BME280;2697;42.144;24.794;2023-08-07T10:20:26;160439.84;;;30.32;34.28
5350;BME280;2697;42.144;24.794;2023-08-07T10:22:52;160502.63;;;30.56;33.90
5350;BME280;2697;42.144;24.794;2023-08-07T10:25:20;160561.41;;;30.78;33.31
5350;BME280;2697;42.144;24.794;2023-08-07T10:27:49;160588.09;;;30.88;33.35
5350;BME280;2697;42.144;24.794;2023-08-07T10:30:16;160561.41;;;30.78;33.43
5350;BME280;2697;42.144;24.794;2023-08-07T10:32:44;160455.88;;;30.38;34.30
5350;BME280;2697;42.144;24.794;2023-08-07T10:35:23;160499.97;;;30.55;33.67
5350;BME280;2697;42.144;24.794;2023-08-07T10:37:51;160513.28;;;30.60;33.41
5350;BME280;2697;42.144;24.794;2023-08-07T10:40:16;160545.41;;;30.72;33.65
5350;BME280;2697;42.144;24.794;2023-08-07T10:42:55;160524.00;;;30.64;33.51
5350;BME280;2697;42.144;24.794;2023-08-07T10:45:22;160483.91;;;30.49;33.98
5350;BME280;2697;42.144;24.794;2023-08-07T10:48:08;160537.38;;;30.69;33.64
5350;BME280;2697;42.144;24.794;2023-08-07T10:50:49;160513.28;;;30.60;33.83
5350;BME280;2697;42.144;24.794;2023-08-07T10:55:53;160598.81;;;30.92;33.46
5350;BME280;2697;42.144;24.794;2023-08-07T10:58:29;160612.16;;;30.98;33.30
5350;BME280;2697;42.144;24.794;2023-08-07T11:03:45;160585.44;;;30.87;33.36
5350;BME280;2697;42.144;24.794;2023-08-07T11:06:11;160644.22;;;31.10;32.95
5350;BME280;2697;42.144;24.794;2023-08-07T11:08:37;160720.41;;;31.39;33.19
5350;BME280;2697;42.144;24.794;2023-08-07T11:11:04;160708.38;;;31.34;33.08
5350;BME280;2697;42.144;24.794;2023-08-07T11:13:30;160692.38;;;31.28;33.35
5350;BME280;2697;42.144;24.794;2023-08-07T11:15:56;160712.38;;;31.36;33.06
5350;BME280;2697;42.144;24.794;2023-08-07T11:18:22;160765.84;;;31.56;33.03
5350;BME280;2697;42.144;24.794;2023-08-07T11:20:48;160792.56;;;31.66;33.43
5350;BME280;2697;42.144;24.794;2023-08-07T11:23:14;160793.91;;;31.67;32.38
5350;BME280;2697;42.144;24.794;2023-08-07T11:25:41;160822.00;;;31.77;32.54
5350;BME280;2697;42.144;24.794;2023-08-07T11:28:06;160691.03;;;31.28;33.28
5350;BME280;2697;42.144;24.794;2023-08-07T11:30:34;160683.00;;;31.25;33.83
5350;BME280;2697;42.144;24.794;2023-08-07T11:33:00;160751.13;;;31.51;33.34
5350;BME280;2697;42.144;24.794;2023-08-07T11:35:26;160831.34;;;31.81;32.82
5350;BME280;2697;42.144;24.794;2023-08-07T11:37:51;160856.72;;;31.91;33.17
5350;BME280;2697;42.144;24.794;2023-08-07T11:40:19;160918.22;;;32.14;32.57
5350;BME280;2697;42.144;24.794;2023-08-07T11:42:44;160886.16;;;32.02;32.67
5350;BME280;2697;42.144;24.794;2023-08-07T11:45:10;160969.03;;;32.33;32.50
5350;BME280;2697;42.144;24.794;2023-08-07T11:47:35;160803.22;;;31.70;33.30
5350;BME280;2697;42.144;24.794;2023-08-07T11:50:01;160809.88;;;31.73;32.83
5350;BME280;2697;42.144;24.794;2023-08-07T11:52:27;160761.78;;;31.55;33.29
5350;BME280;2697;42.144;24.794;2023-08-07T11:54:52;160855.38;;;31.90;33.51
5350;BME280;2697;42.144;24.794;2023-08-07T11:57:20;160932.88;;;32.20;32.68
5350;BME280;2697;42.144;24.794;2023-08-07T11:59:50;160904.81;;;32.09;32.79
5350;BME280;2697;42.144;24.794;2023-08-07T12:02:15;160951.59;;;32.27;32.99
5350;BME280;2697;42.144;24.794;2023-08-07T12:04:41;161033.22;;;32.58;33.46
5350;BME280;2697;42.144;24.794;2023-08-07T12:07:06;161031.88;;;32.57;32.42
5350;BME280;2697;42.144;24.794;2023-08-07T12:09:36;160959.72;;;32.30;33.43
5350;BME280;2697;42.144;24.794;2023-08-07T12:12:02;160918.22;;;32.14;33.21
5350;BME280;2697;42.144;24.794;2023-08-07T12:14:31;160843.38;;;31.86;33.71
5350;BME280;2697;42.144;24.794;2023-08-07T12:16:56;160919.53;;;32.15;33.94
5350;BME280;2697;42.144;24.794;2023-08-07T12:19:22;160927.53;;;32.18;34.42
5350;BME280;2697;42.144;24.794;2023-08-07T12:21:47;160970.38;;;32.34;33.34
5350;BME280;2697;42.144;24.794;2023-08-07T12:24:13;161031.88;;;32.57;33.25
5350;BME280;2697;42.144;24.794;2023-08-07T12:26:39;161106.81;;;32.86;32.94
5350;BME280;2697;42.144;24.794;2023-08-07T12:29:04;161192.34;;;33.18;32.75
5350;BME280;2697;42.144;24.794;2023-08-07T12:31:29;161201.69;;;33.22;32.77
5350;BME280;2697;42.144;24.794;2023-08-07T12:33:55;161232.50;;;33.34;32.71
5350;BME280;2697;42.144;24.794;2023-08-07T12:36:20;161196.34;;;33.20;32.85
5350;BME280;2697;42.144;24.794;2023-08-07T12:38:45;161272.63;;;33.49;32.75
5350;BME280;2697;42.144;24.794;2023-08-07T12:41:11;161084.03;;;32.77;32.94
5350;BME280;2697;42.144;24.794;2023-08-07T12:43:37;161079.97;;;32.76;32.92
5350;BME280;2697;42.144;24.794;2023-08-07T12:46:02;161027.84;;;32.56;33.15
5350;BME280;2697;42.144;24.794;2023-08-07T12:48:27;160997.09;;;32.44;33.67
5350;BME280;2697;42.144;24.794;2023-08-07T12:50:53;161125.47;;;32.93;32.97
5350;BME280;2697;42.144;24.794;2023-08-07T12:53:19;161174.94;;;33.12;33.14
5350;BME280;2697;42.144;24.794;2023-08-07T12:55:44;161164.28;;;33.08;33.11
5350;BME280;2697;42.144;24.794;2023-08-07T12:58:10;161013.16;;;32.50;33.73
5350;BME280;2697;42.144;24.794;2023-08-07T13:00:36;160834.00;;;31.82;34.27
5350;BME280;2697;42.144;24.794;2023-08-07T13:03:01;160892.81;;;32.04;34.35
5350;BME280;2697;42.144;24.794;2023-08-07T13:05:28;160934.28;;;32.20;34.44
5350;BME280;2697;42.144;24.794;2023-08-07T13:07:53;160989.09;;;32.41;33.98